Latest Coastal Weather Observations for Kiama

IDN60701

Issued at 2:11 pm EST Sunday 5 July 2015 (issued every 10 minutes, with the page automatically refreshed every 10 minutes)

About coastal observations | Map of coastal stations | Coastal observations for NSW | Marine services | Other Formats
Station Details ID: 068242 Name: KIAMA (BOMBO HEADLAND) Lat: -34.65 Lon: 150.86 Height: 15.5 m
Data from the previous 72 hours. | See also: Recent months at Kiama
Date/Time
EST
Temp

°C
Wind Pressure Rain
since 9am
mm
Weather Cloud Vis
km
Sea
Height
m
Swell
Dir
 
Speed
knots
Gust
knots
hPa Trend Height
m
Period
s
Dir
05/02:00pm 17.7 NE 2 4 - - 0.0 - - - - - - -
05/01:30pm 17.7 NE 1 4 - - 0.0 - - - - - - -
05/01:00pm 17.5 NE 2 5 - - 0.0 - - - - - - -
05/12:30pm 17.7 NE 3 5 - - 0.0 - - - - - - -
05/12:00pm 17.0 NE 2 4 - - 0.0 - - - - - - -
05/11:30am 16.7 E 1 3 - - 0.0 - - - - - - -
05/11:00am 16.0 CALM 0 0 - - 0.0 - - - - - - -
05/10:30am 15.5 CALM 0 0 - - 0.0 - - - - - - -
05/10:00am 15.6 CALM 0 0 - - 0.0 - - - - - - -
05/09:30am 14.3 CALM 0 0 - - 0.0 - - - - - - -
05/09:00am 13.9 CALM 0 0 - - 0.0 - - - - - - -
05/08:30am 12.4 WNW 2 4 - - 0.0 - - - - - - -
05/08:00am 10.7 W 6 7 - - 0.0 - - - - - - -
05/07:30am 8.6 WNW 5 7 - - 0.0 - - - - - - -
05/07:00am 9.7 CALM 0 0 - - 0.0 - - - - - - -
05/06:30am 9.5 CALM 0 0 - - 0.0 - - - - - - -
05/06:00am 9.4 W 5 7 - - 0.0 - - - - - - -
05/05:30am 9.4 WNW 7 9 - - 0.0 - - - - - - -
05/05:00am 8.8 W 6 7 - - 0.0 - - - - - - -
05/04:30am 8.6 W 6 7 - - 0.0 - - - - - - -
05/04:00am 8.9 W 6 7 - - 0.0 - - - - - - -
05/03:30am 9.2 W 5 8 - - 0.0 - - - - - - -
05/03:00am 9.3 W 7 9 - - 0.0 - - - - - - -
05/02:30am 9.0 WNW 7 9 - - 0.0 - - - - - - -
05/02:00am 9.0 WNW 6 8 - - 0.0 - - - - - - -
05/01:30am 9.2 WNW 6 8 - - 0.0 - - - - - - -
05/01:00am 9.0 W 7 8 - - 0.0 - - - - - - -
05/12:30am 9.7 WNW 6 9 - - 0.0 - - - - - - -
05/12:00am 9.7 WNW 7 10 - - 0.0 - - - - - - -
 
Date/Time
EST
Temp

°C
Wind Pressure Rain
since 9am
mm
Weather Cloud Vis
km
Sea
Height
m
Swell
Dir
 
Speed
knots
Gust
knots
hPa Trend Height
m
Period
s
Dir
04/11:30pm 9.9 WNW 7 10 - - 0.0 - - - - - - -
04/11:00pm 10.1 WNW 8 12 - - 0.0 - - - - - - -
04/10:30pm 10.1 W 8 11 - - 0.0 - - - - - - -
04/10:00pm 10.5 W 8 13 - - 0.0 - - - - - - -
04/09:30pm 10.2 WNW 5 9 - - 0.0 - - - - - - -
04/09:00pm 10.2 W 5 9 - - 0.0 - - - - - - -
04/08:30pm 10.4 W 8 11 - - 0.0 - - - - - - -
04/08:00pm 10.8 W 9 13 - - 0.0 - - - - - - -
04/07:30pm 11.0 WNW 8 11 - - 0.0 - - - - - - -
04/07:00pm 11.3 WNW 7 11 - - 0.0 - - - - - - -
04/06:30pm 11.7 WNW 6 9 - - 0.0 - - - - - - -
04/06:00pm 11.8 WNW 7 9 - - 0.0 - - - - - - -
04/05:30pm 12.1 WNW 6 9 - - 0.0 - - - - - - -
04/05:00pm 12.1 NW 4 6 - - 0.0 - - - - - - -
04/04:30pm 13.1 W 4 7 - - 0.0 - - - - - - -
04/04:00pm 14.0 SW 6 8 - - 0.0 - - - - - - -
04/03:30pm 14.5 SW 5 9 - - 0.0 - - - - - - -
04/03:00pm 14.6 WSW 5 9 - - 0.0 - - - - - - -
04/02:30pm 14.3 WSW 8 14 - - 0.0 - - - - - - -
04/02:00pm 14.7 WSW 6 10 - - 0.0 - - - - - - -
04/01:30pm 14.8 SW 5 8 - - 0.0 - - - - - - -
04/01:00pm 14.2 W 2 5 - - 0.0 - - - - - - -
04/12:30pm 12.9 W 5 7 - - 0.0 - - - - - - -
04/12:00pm 13.9 CALM 0 5 - - 0.0 - - - - - - -
04/11:30am 13.2 WSW 2 5 - - 0.0 - - - - - - -
04/11:00am 13.0 WNW 4 7 - - 0.0 - - - - - - -
04/10:30am 12.4 WNW 5 8 - - 0.0 - - - - - - -
04/10:00am 11.4 W 5 9 - - 0.0 - - - - - - -
04/09:30am 9.5 W 5 10 - - 0.0 - - - - - - -
04/09:00am 9.3 SW 4 6 - - 0.0 - - - - - - -
04/08:30am 8.4 NW 1 3 - - 0.0 - - - - - - -
04/08:00am 7.6 NW 4 7 - - 0.0 - - - - - - -
04/07:30am 8.2 W 8 14 - - 0.0 - - - - - - -
04/07:00am 8.2 W 7 13 - - 0.0 - - - - - - -
04/06:30am 7.5 W 4 8 - - 0.0 - - - - - - -
04/06:00am 7.7 WNW 4 5 - - 0.0 - - - - - - -
04/05:30am 7.2 W 5 6 - - 0.0 - - - - - - -
04/05:00am 6.4 W 5 8 - - 0.0 - - - - - - -
04/04:30am 7.5 NW 3 5 - - 0.0 - - - - - - -
04/04:00am 7.3 CALM 0 0 - - 0.0 - - - - - - -
04/03:30am 6.8 NW 3 5 - - 0.0 - - - - - - -
04/03:00am 6.1 CALM 0 0 - - 0.0 - - - - - - -
04/02:30am 6.8 WNW 2 4 - - 0.0 - - - - - - -
04/02:00am 7.3 W 1 5 - - 0.0 - - - - - - -
04/01:30am 7.2 W 4 7 - - 0.0 - - - - - - -
04/01:00am 7.3 W 6 8 - - 0.0 - - - - - - -
04/12:30am 7.5 WNW 5 7 - - 0.0 - - - - - - -
04/12:00am 7.5 WNW 6 8 - - 0.0 - - - - - - -
 
Date/Time
EST
Temp

°C
Wind Pressure Rain
since 9am
mm
Weather Cloud Vis
km
Sea
Height
m
Swell
Dir
 
Speed
knots
Gust
knots
hPa Trend Height
m
Period
s
Dir
03/11:30pm 7.8 WNW 5 7 - - 0.0 - - - - - - -
03/11:00pm 8.0 WNW 6 7 - - 0.0 - - - - - - -
03/10:30pm 8.6 W 6 7 - - 0.0 - - - - - - -
03/10:00pm 8.1 WNW 7 8 - - 0.0 - - - - - - -
03/09:30pm 7.8 WNW 6 8 - - 0.0 - - - - - - -
03/09:00pm 7.5 W 7 8 - - 0.0 - - - - - - -
03/08:30pm 7.9 WNW 5 6 - - 0.0 - - - - - - -
03/08:00pm 8.4 W 6 7 - - 0.0 - - - - - - -
03/07:30pm 8.2 W 5 6 - - 0.0 - - - - - - -
03/07:00pm 8.5 W 6 7 - - 0.0 - - - - - - -
03/06:30pm 9.1 W 5 5 - - 0.0 - - - - - - -
03/06:00pm 9.2 WSW 3 4 - - 0.0 - - - - - - -
03/05:30pm 10.2 SW 4 6 - - 0.0 - - - - - - -
03/05:00pm 11.8 SSW 6 8 - - 0.0 - - - - - - -
03/04:30pm 12.5 SSW 8 11 - - 0.0 - - - - - - -
03/04:00pm 12.6 S 8 10 - - 0.0 - - - - - - -
03/03:30pm 12.9 S 9 12 - - 0.0 - - - - - - -
03/03:00pm 13.1 S 9 13 - - 0.0 - - - - - - -
03/02:30pm 13.2 SSW 9 12 - - 0.0 - - - - - - -
03/02:00pm 13.3 SSW 10 14 - - 0.0 - - - - - - -
03/01:30pm 12.9 SSW 13 17 - - 0.0 - - - - - - -
03/01:00pm 13.1 SSW 11 16 - - 0.0 - - - - - - -
03/12:30pm 12.8 SSW 12 16 - - 0.0 - - - - - - -
03/12:00pm 12.6 SSW 12 16 - - 0.0 - - - - - - -
03/11:30am 12.7 SW 12 17 - - 0.0 - - - - - - -
03/11:00am 12.5 SW 12 18 - - 0.0 - - - - - - -
03/10:30am 12.9 SW 8 13 - - 0.0 - - - - - - -
03/10:00am 11.9 SW 11 19 - - 0.0 - - - - - - -
03/09:30am 11.8 WSW 8 13 - - 0.0 - - - - - - -
03/09:00am 11.3 WSW 8 15 - - 0.0 - - - - - - -
03/08:30am 10.3 WSW 7 11 - - 0.0 - - - - - - -
03/08:00am 9.8 WSW 9 13 - - 0.0 - - - - - - -
03/07:30am 9.6 SW 9 15 - - 0.0 - - - - - - -
03/07:00am 9.9 SW 13 17 - - 0.0 - - - - - - -
03/06:30am 10.0 SW 11 15 - - 0.0 - - - - - - -
03/06:00am 9.8 SW 11 16 - - 0.0 - - - - - - -
03/05:30am 8.0 WSW 8 11 - - 0.0 - - - - - - -
03/05:00am 8.9 W 9 13 - - 0.0 - - - - - - -
03/04:30am 9.8 SW 11 17 - - 0.0 - - - - - - -
03/04:00am 10.2 SW 15 21 - - 0.0 - - - - - - -
03/03:30am 10.1 SW 14 19 - - 0.0 - - - - - - -
03/03:00am 9.9 SW 12 18 - - 0.0 - - - - - - -
03/02:30am 10.0 SW 12 18 - - 0.0 - - - - - - -
03/02:00am 10.3 SW 14 19 - - 0.0 - - - - - - -
03/01:30am 10.2 SW 11 19 - - 0.0 - - - - - - -
03/01:00am 10.2 SW 12 17 - - 0.0 - - - - - - -
03/12:30am 10.5 SW 14 19 - - 0.0 - - - - - - -
03/12:00am 10.9 SW 15 23 - - 0.0 - - - - - - -
 
Date/Time
EST
Temp

°C
Wind Pressure Rain
since 9am
mm
Weather Cloud Vis
km
Sea
Height
m
Swell
Dir
 
Speed
knots
Gust
knots
hPa Trend Height
m
Period
s
Dir
02/11:30pm 10.9 SW 13 20 - - 0.0 - - - - - - -
02/11:00pm 11.0 SW 12 18 - - 0.0 - - - - - - -
02/10:30pm 11.2 SW 15 21 - - 0.0 - - - - - - -
02/10:00pm 11.1 SW 15 22 - - 0.0 - - - - - - -
02/09:30pm 11.2 SW 15 22 - - 0.0 - - - - - - -
02/09:00pm 11.3 SW 16 21 - - 0.0 - - - - - - -
02/08:30pm 11.3 SW 13 19 - - 0.0 - - - - - - -
02/08:00pm 11.4 SW 13 17 - - 0.0 - - - - - - -
02/07:30pm 11.7 SW 14 22 - - 0.0 - - - - - - -
02/07:00pm 11.6 SW 9 15 - - 0.0 - - - - - - -
02/06:30pm 10.9 SW 8 10 - - 0.0 - - - - - - -
02/06:00pm 11.5 SSW 15 21 - - 0.0 - - - - - - -
02/05:30pm 11.8 S 23 35 - - 0.0 - - - - - - -
02/05:25pm 12.2 SSW 20 35 - - 0.0 - - - - - - -
02/05:21pm 13.1 SW 20 31 - - 0.0 - - - - - - -
02/05:00pm 12.6 WSW 18 29 - - 0.0 - - - - - - -
02/04:30pm 12.8 W 16 27 - - 0.0 - - - - - - -
02/04:13pm 13.0 W 15 27 - - 0.0 - - - - - - -
02/04:00pm 13.1 W 14 23 - - 0.0 - - - - - - -
02/03:43pm 13.2 W 15 27 - - 0.0 - - - - - - -
02/03:30pm 13.3 WNW 9 20 - - 0.0 - - - - - - -
02/03:00pm 14.1 WNW 8 16 - - 0.0 - - - - - - -
02/02:38pm 15.2 W 15 28 - - 0.0 - - - - - - -
02/02:30pm 15.0 W 9 26 - - 0.0 - - - - - - -

Other Formats:

Comma delimited format used in spreadsheet applications
http://www.bom.gov.au/fwo/IDN60701/IDN60701.95749.axf

JavaScript Object Notation format (JSON) in row-major order
http://www.bom.gov.au/fwo/IDN60701/IDN60701.95749.json